Time;durP1;ratioP1;P1;durP2;ratioP2;P2;SDS_P1;SDS_P2;PMS_P1;PMS_P2;Temp;Humidity;BMP_temperature;BMP_pressure;BME280_temperature;BME280_humidity;BME280_pressure;Samples;Min_cycle;Max_cycle;Signal;HPM_P1;HPM_P2
2022/09/04 00:02:08;;;;;;;3.72;2.95;;;21.00;83.30;;;;;;5053112;28;20430;-35
2022/09/04 00:05:34;;;;;;;4.80;3.25;;;21.00;83.40;;;;;;5066588;28;20494;-35
2022/09/04 00:08:10;;;;;;;4.22;3.13;;;20.90;83.50;;;;;;5023113;28;20037;-34
2022/09/04 00:10:39;;;;;;;4.80;3.70;;;20.90;83.40;;;;;;5004229;28;20026;-35
2022/09/04 00:13:26;;;;;;;6.78;3.53;;;20.90;83.50;;;;;;5047747;28;20032;-36
2022/09/04 00:16:18;;;;;;;4.07;3.67;;;20.90;83.90;;;;;;5046374;28;20044;-34
2022/09/04 00:19:07;;;;;;;5.03;3.78;;;20.90;84.00;;;;;;5063930;28;20025;-35
2022/09/04 00:21:32;;;;;;;4.95;3.97;;;20.80;84.20;;;;;;5065312;28;20025;-34
2022/09/04 00:24:10;;;;;;;4.07;3.60;;;20.80;84.20;;;;;;5065475;28;20034;-34
2022/09/04 00:26:57;;;;;;;4.05;3.63;;;20.70;84.40;;;;;;5065356;28;20036;-35
2022/09/04 00:29:36;;;;;;;4.03;3.63;;;20.70;84.60;;;;;;5065422;28;20021;-35
2022/09/04 00:32:38;;;;;;;5.43;4.10;;;20.70;84.80;;;;;;5066362;28;20029;-34
2022/09/04 00:35:19;;;;;;;4.70;4.15;;;20.70;85.00;;;;;;5065235;28;20028;-35
2022/09/04 00:38:07;;;;;;;5.35;4.20;;;20.60;85.30;;;;;;5065168;28;20070;-35
2022/09/04 00:40:38;;;;;;;5.63;4.10;;;20.60;85.50;;;;;;5056448;28;20033;-36
2022/09/04 00:43:20;;;;;;;3.93;3.63;;;20.60;85.60;;;;;;5064867;28;20078;-36
2022/09/04 00:46:15;;;;;;;4.95;3.72;;;20.60;85.90;;;;;;5065068;28;20060;-35
2022/09/04 00:49:01;;;;;;;4.35;3.95;;;20.50;86.00;;;;;;5064487;28;20134;-36
2022/09/04 00:52:02;;;;;;;4.50;4.10;;;20.50;86.30;;;;;;5064570;28;20078;-34
2022/09/04 00:54:46;;;;;;;4.03;3.72;;;20.40;86.50;;;;;;5064748;28;20091;-36
2022/09/04 00:57:24;;;;;;;4.68;3.80;;;20.40;86.70;;;;;;5044969;28;20574;-35
2022/09/04 01:00:18;;;;;;;4.78;4.35;;;20.40;86.80;;;;;;5061183;28;20139;-35
2022/09/04 01:02:51;;;;;;;4.93;4.32;;;20.40;87.20;;;;;;5064232;28;20052;-36
2022/09/04 01:05:22;;;;;;;4.70;4.00;;;20.30;87.40;;;;;;5064422;28;20028;-36
2022/09/04 01:08:26;;;;;;;4.03;3.72;;;20.30;87.60;;;;;;5064936;28;20262;-36
2022/09/04 01:11:11;;;;;;;3.97;3.58;;;20.20;87.80;;;;;;5064169;28;20433;-34
2022/09/04 01:14:00;;;;;;;4.40;4.00;;;20.20;87.90;;;;;;5065233;28;20479;-36
2022/09/04 01:16:53;;;;;;;5.90;3.97;;;20.20;88.10;;;;;;5065120;28;20127;-35
2022/09/04 01:19:37;;;;;;;4.40;3.78;;;20.20;88.50;;;;;;5064941;28;20391;-35
2022/09/04 01:22:27;;;;;;;4.43;4.03;;;20.10;88.70;;;;;;5064855;28;20108;-35
2022/09/04 01:25:04;;;;;;;4.53;4.05;;;20.10;88.80;;;;;;5064179;28;20533;-36
2022/09/04 01:28:06;;;;;;;4.38;3.97;;;20.10;89.20;;;;;;5064892;28;20024;-35
2022/09/04 01:31:02;;;;;;;4.65;4.20;;;20.00;89.60;;;;;;5057542;28;20040;-35
2022/09/04 01:34:00;;;;;;;4.82;4.30;;;20.00;89.80;;;;;;5026412;28;20044;-35
2022/09/04 01:36:38;;;;;;;4.40;4.00;;;20.00;90.00;;;;;;5063901;28;20055;-35
2022/09/04 01:39:04;;;;;;;5.07;4.35;;;19.90;90.10;;;;;;5059125;28;20025;-35
2022/09/04 01:41:51;;;;;;;6.97;4.95;;;19.90;90.20;;;;;;5063209;28;20502;-36
2022/09/04 01:44:17;;;;;;;5.40;4.20;;;19.90;90.50;;;;;;5065441;28;20032;-35
2022/09/04 01:47:07;;;;;;;5.03;4.25;;;19.90;90.60;;;;;;5063739;28;20943;-34
2022/09/04 01:49:35;;;;;;;4.80;4.35;;;19.90;90.90;;;;;;5064727;28;20025;-36
2022/09/04 01:52:06;;;;;;;5.57;4.68;;;19.90;90.90;;;;;;5063518;28;20021;-35
2022/09/04 01:54:44;;;;;;;5.45;4.93;;;19.90;91.00;;;;;;5064880;28;20356;-34
2022/09/04 01:57:13;;;;;;;5.50;5.00;;;19.90;91.20;;;;;;5065411;28;20592;-35
2022/09/04 02:00:07;;;;;;;5.18;4.78;;;19.90;91.30;;;;;;5063841;28;20460;-35
2022/09/04 02:02:43;;;;;;;5.40;4.90;;;19.90;91.50;;;;;;5064377;28;20391;-36
2022/09/04 02:05:14;;;;;;;5.45;4.38;;;19.90;91.50;;;;;;5064894;28;20476;-34
2022/09/04 02:07:46;;;;;;;5.30;4.80;;;19.90;91.50;;;;;;5062948;28;20453;-35
2022/09/04 02:10:35;;;;;;;5.55;4.97;;;19.80;91.60;;;;;;5065357;28;20031;-34
2022/09/04 02:13:25;;;;;;;5.28;4.78;;;19.80;91.80;;;;;;5064640;28;20016;-36
2022/09/04 02:15:53;;;;;;;5.65;5.10;;;19.80;91.80;;;;;;5064734;28;20158;-35
2022/09/04 02:18:49;;;;;;;5.45;4.93;;;19.80;91.80;;;;;;5068517;28;20028;-35
2022/09/04 02:21:39;;;;;;;5.70;5.10;;;19.80;92.00;;;;;;5063181;28;20085;-35
2022/09/04 02:24:29;;;;;;;5.50;5.00;;;19.70;92.10;;;;;;5060626;28;20029;-35
2022/09/04 02:27:09;;;;;;;5.85;5.20;;;19.70;92.20;;;;;;5048230;28;20365;-35
2022/09/04 02:29:47;;;;;;;5.35;4.85;;;19.70;92.40;;;;;;5067681;28;20045;-35
2022/09/04 02:32:21;;;;;;;6.00;5.38;;;19.70;92.50;;;;;;5068251;28;20323;-36
2022/09/04 02:35:14;;;;;;;5.78;5.18;;;19.70;92.60;;;;;;5067413;28;20442;-35
2022/09/04 02:37:53;;;;;;;6.53;5.68;;;19.70;92.80;;;;;;5067520;28;20478;-35
2022/09/04 02:40:29;;;;;;;5.65;5.15;;;19.60;92.80;;;;;;5067662;28;20024;-35
2022/09/04 02:43:20;;;;;;;7.47;5.15;;;19.60;93.00;;;;;;5066745;28;20430;-35
2022/09/04 02:46:13;;;;;;;8.35;5.70;;;19.60;93.00;;;;;;5047841;28;20123;-36
2022/09/04 02:49:12;;;;;;;5.85;5.30;;;19.60;93.20;;;;;;5064108;28;20057;-35
2022/09/04 02:52:00;;;;;;;7.65;6.15;;;19.60;93.30;;;;;;5067593;28;20016;-36
2022/09/04 02:54:44;;;;;;;5.50;5.00;;;19.50;93.30;;;;;;5067093;28;20155;-36
2022/09/04 02:57:38;;;;;;;5.75;5.25;;;19.50;93.50;;;;;;5066914;28;20024;-36
2022/09/04 03:00:14;;;;;;;6.18;5.57;;;19.50;93.70;;;;;;5045894;28;20051;-36
2022/09/04 03:03:08;;;;;;;6.25;5.57;;;19.40;93.80;;;;;;5066173;28;20036;-35
2022/09/04 03:05:55;;;;;;;5.47;4.97;;;19.40;93.90;;;;;;5060387;28;20439;-36
2022/09/04 03:08:38;;;;;;;6.55;5.95;;;19.40;94.00;;;;;;5067585;28;20035;-36
2022/09/04 03:11:37;;;;;;;7.40;6.65;;;19.40;94.10;;;;;;5067022;28;20454;-36
2022/09/04 03:14:23;;;;;;;7.53;6.15;;;19.40;94.30;;;;;;5067388;28;20108;-37
2022/09/04 03:17:02;;;;;;;6.93;5.95;;;19.40;94.40;;;;;;5046856;28;20075;-35
2022/09/04 03:19:46;;;;;;;6.40;5.75;;;19.30;94.40;;;;;;5063739;28;20028;-35
2022/09/04 03:22:37;;;;;;;8.48;6.47;;;19.40;94.60;;;;;;5047882;28;20043;-35
2022/09/04 03:25:33;;;;;;;7.65;6.75;;;19.30;94.70;;;;;;5065586;28;20047;-36
2022/09/04 03:28:00;;;;;;;6.03;5.53;;;19.30;94.90;;;;;;5066512;28;20036;-36
2022/09/04 03:30:30;;;;;;;7.70;6.90;;;19.30;94.90;;;;;;5065745;28;20453;-38
2022/09/04 03:33:23;;;;;;;7.47;6.60;;;19.20;95.10;;;;;;5066621;28;20034;-36
2022/09/04 03:36:15;;;;;;;7.10;6.40;;;19.20;95.20;;;;;;5064035;28;20848;-36
2022/09/04 03:39:03;;;;;;;6.13;5.53;;;19.20;95.30;;;;;;5065931;28;20032;-36
2022/09/04 03:41:55;;;;;;;7.07;6.38;;;19.20;95.40;;;;;;5056540;28;20153;-36
2022/09/04 03:44:41;;;;;;;7.40;6.70;;;19.10;95.50;;;;;;5066563;28;20017;-37
2022/09/04 03:47:25;;;;;;;7.47;6.75;;;19.10;95.60;;;;;;5066766;28;20024;-35
2022/09/04 03:50:09;;;;;;;7.78;7.07;;;19.10;95.80;;;;;;5066164;28;20107;-35
2022/09/04 03:53:17;;;;;;;6.90;6.25;;;19.00;96.00;;;;;;5065520;28;20031;-37
2022/09/04 03:56:08;;;;;;;7.82;6.22;;;19.00;96.10;;;;;;5065974;28;20496;-37
2022/09/04 03:58:58;;;;;;;7.72;6.47;;;19.00;96.20;;;;;;5045953;28;20033;-36
2022/09/04 04:01:38;;;;;;;8.32;7.45;;;19.00;96.30;;;;;;5065298;28;20242;-35
2022/09/04 04:04:09;;;;;;;6.68;6.03;;;19.00;96.40;;;;;;5067039;28;20564;-37
2022/09/04 04:07:11;;;;;;;7.55;6.85;;;19.00;96.50;;;;;;5063982;28;20037;-36
2022/09/04 04:09:58;;;;;;;7.80;7.07;;;19.00;96.70;;;;;;5066143;28;20074;-36
2022/09/04 04:12:44;;;;;;;8.15;7.35;;;19.00;96.70;;;;;;5056100;28;20036;-36
2022/09/04 04:15:52;;;;;;;9.15;7.63;;;18.90;96.80;;;;;;5066102;28;20077;-36
2022/09/04 04:18:53;;;;;;;9.63;7.93;;;18.90;97.00;;;;;;5045338;28;20384;-36
2022/09/04 04:21:56;;;;;;;8.27;7.57;;;18.90;97.20;;;;;;5055885;28;20488;-36
2022/09/04 04:24:37;;;;;;;;;;;18.90;97.30;;;;;;5046788;28;20544;-35
2022/09/04 04:27:20;;;;;;;9.43;7.88;;;18.90;97.40;;;;;;5064387;28;20054;-37
2022/09/04 04:30:08;;;;;;;9.02;8.13;;;18.80;97.40;;;;;;5065173;28;20091;-35
2022/09/04 04:33:14;;;;;;;8.60;7.70;;;18.80;97.60;;;;;;5065325;28;20107;-36
2022/09/04 04:36:05;;;;;;;8.52;7.65;;;18.80;97.80;;;;;;5065218;28;20442;-35
2022/09/04 04:38:55;;;;;;;9.27;8.38;;;18.80;97.90;;;;;;5057518;28;20036;-35
2022/09/04 04:42:02;;;;;;;9.38;8.48;;;18.80;98.00;;;;;;5065007;28;20082;-36
2022/09/04 04:45:48;;;;;;;8.98;8.18;;;18.70;98.10;;;;;;5065317;28;20040;-36
2022/09/04 04:47:49;;;;;;;9.35;8.30;;;18.70;98.20;;;;;;5065711;28;20103;-36
2022/09/04 04:50:23;;;;;;;9.68;8.68;;;18.70;98.40;;;;;;5046211;28;20036;-36
2022/09/04 04:53:15;;;;;;;10.30;9.20;;;18.70;98.50;;;;;;5063306;28;20028;-36
2022/09/04 04:55:56;;;;;;;11.02;9.13;;;18.70;98.60;;;;;;5048289;28;20142;-36
2022/09/04 04:59:19;;;;;;;9.60;8.60;;;18.70;98.70;;;;;;5065233;28;20154;-35
2022/09/04 05:01:50;;;;;;;10.48;9.02;;;18.70;98.80;;;;;;5021964;28;20029;-37
2022/09/04 05:04:36;;;;;;;9.25;8.30;;;18.70;98.90;;;;;;5059736;28;20048;-36
2022/09/04 05:07:30;;;;;;;10.77;9.32;;;18.60;99.00;;;;;;5065040;28;20053;-36
2022/09/04 05:10:05;;;;;;;11.25;9.63;;;18.60;99.20;;;;;;5064485;28;20024;-36
2022/09/04 05:12:59;;;;;;;10.00;9.10;;;18.60;99.20;;;;;;5065051;28;20062;-36
2022/09/04 05:15:34;;;;;;;9.30;8.35;;;18.60;99.40;;;;;;5065183;28;20029;-36
2022/09/04 05:18:10;;;;;;;9.05;8.15;;;18.60;99.40;;;;;;5064212;28;20030;-35
2022/09/04 05:20:50;;;;;;;9.60;8.63;;;18.70;99.50;;;;;;5064847;28;20028;-36
2022/09/04 05:23:24;;;;;;;9.75;8.43;;;18.70;99.50;;;;;;5064693;28;20392;-35
2022/09/04 05:26:06;;;;;;;9.32;8.43;;;18.70;99.60;;;;;;5064650;28;20036;-35
2022/09/04 05:28:54;;;;;;;9.77;8.43;;;18.70;99.70;;;;;;5064413;28;20119;-35
2022/09/04 05:31:37;;;;;;;9.10;8.10;;;18.70;99.70;;;;;;5044223;28;20504;-35
2022/09/04 05:34:19;;;;;;;9.25;8.15;;;18.70;99.80;;;;;;5061353;28;20537;-36
2022/09/04 05:37:01;;;;;;;9.07;8.15;;;18.70;99.80;;;;;;5064386;28;20020;-37
2022/09/04 05:39:43;;;;;;;;;;;18.70;99.90;;;;;;5065339;28;20032;-37
2022/09/04 05:42:47;;;;;;;9.43;8.43;;;18.70;99.90;;;;;;5065583;28;20124;-36
2022/09/04 05:45:55;;;;;;;9.48;8.57;;;18.70;99.90;;;;;;5062716;28;20107;-37
2022/09/04 05:48:29;;;;;;;10.25;7.07;;;18.70;99.90;;;;;;5064534;28;20040;-36
2022/09/04 05:51:06;;;;;;;9.20;8.30;;;18.80;99.90;;;;;;5065074;28;20032;-36
2022/09/04 05:53:52;;;;;;;8.38;7.60;;;18.80;99.90;;;;;;5068229;28;20060;-35
2022/09/04 05:56:40;;;;;;;9.98;8.98;;;18.80;99.90;;;;;;5068246;28;20056;-35
2022/09/04 05:59:29;;;;;;;9.25;8.02;;;18.80;99.90;;;;;;5067167;28;20071;-35
2022/09/04 06:02:36;;;;;;;9.63;8.63;;;18.80;99.90;;;;;;5068033;28;20044;-35
2022/09/04 06:05:12;;;;;;;8.57;7.68;;;18.80;99.90;;;;;;5068600;28;20510;-35
2022/09/04 06:07:57;;;;;;;9.25;8.32;;;18.80;99.90;;;;;;5048172;28;20028;-36
2022/09/04 06:10:38;;;;;;;9.32;8.40;;;18.80;99.90;;;;;;5066568;28;20025;-36
2022/09/04 06:13:45;;;;;;;9.77;8.25;;;18.90;99.90;;;;;;5067970;28;20055;-36
2022/09/04 06:16:16;;;;;;;9.02;8.13;;;18.90;99.90;;;;;;5068669;28;20487;-36
2022/09/04 06:19:13;;;;;;;10.43;8.70;;;18.90;99.90;;;;;;5067638;28;20036;-35
2022/09/04 06:21:44;;;;;;;7.57;6.88;;;19.00;99.90;;;;;;5067487;28;20139;-36
2022/09/04 06:24:45;;;;;;;9.02;8.00;;;19.00;99.90;;;;;;5068028;28;20391;-36
2022/09/04 06:27:47;;;;;;;7.85;7.13;;;19.00;99.90;;;;;;5051833;28;20041;-36
2022/09/04 06:30:14;;;;;;;7.47;6.78;;;19.10;99.90;;;;;;5068473;28;20031;-36
2022/09/04 06:33:01;;;;;;;8.02;7.15;;;19.10;99.90;;;;;;5067659;28;20029;-35
2022/09/04 06:36:04;;;;;;;8.00;7.20;;;19.10;99.90;;;;;;5066459;28;20032;-35
2022/09/04 06:38:48;;;;;;;;;;;19.20;99.90;;;;;;5067954;28;20021;-35
2022/09/04 06:41:42;;;;;;;6.55;5.95;;;19.20;99.90;;;;;;5066828;28;20739;-36
2022/09/04 06:44:27;;;;;;;7.45;6.75;;;19.30;99.90;;;;;;5047663;28;20064;-35
2022/09/04 06:47:10;;;;;;;7.18;6.47;;;19.40;99.90;;;;;;5067245;28;20032;-37
2022/09/04 06:50:00;;;;;;;6.90;6.20;;;19.50;99.90;;;;;;5066805;28;20028;-35
2022/09/04 06:53:01;;;;;;;6.95;6.22;;;19.70;99.90;;;;;;5067397;28;20078;-37
2022/09/04 06:55:46;;;;;;;6.50;5.90;;;19.80;99.90;;;;;;5066072;28;20052;-36
2022/09/04 06:58:24;;;;;;;5.75;5.18;;;19.90;99.90;;;;;;5067669;28;20036;-36
2022/09/04 07:01:07;;;;;;;6.82;6.13;;;20.00;99.80;;;;;;5066802;28;20021;-35
2022/09/04 07:03:55;;;;;;;7.13;6.43;;;20.10;99.80;;;;;;5064951;28;20037;-37
2022/09/04 07:06:55;;;;;;;6.38;5.78;;;20.20;99.70;;;;;;5067023;28;20020;-35
2022/09/04 07:09:29;;;;;;;8.35;6.22;;;20.30;99.60;;;;;;5028009;28;20087;-36
2022/09/04 07:12:16;;;;;;;6.63;5.35;;;20.40;99.50;;;;;;5066990;28;20028;-36
2022/09/04 07:15:13;;;;;;;7.22;6.35;;;20.50;99.50;;;;;;5066475;28;20392;-36
2022/09/04 07:18:09;;;;;;;5.90;5.32;;;20.60;99.30;;;;;;5065761;28;20036;-35
2022/09/04 07:20:59;;;;;;;6.22;5.60;;;20.60;99.20;;;;;;5066118;28;20032;-37
2022/09/04 07:23:29;;;;;;;6.05;5.55;;;20.70;99.10;;;;;;5065962;28;20049;-36
2022/09/04 07:26:27;;;;;;;6.22;5.72;;;20.70;99.10;;;;;;5066225;28;20028;-34
2022/09/04 07:29:18;;;;;;;6.63;5.82;;;20.70;99.10;;;;;;5066480;28;20418;-37
2022/09/04 07:32:11;;;;;;;5.93;5.38;;;20.70;99.10;;;;;;5065613;28;20036;-36
2022/09/04 07:34:51;;;;;;;6.03;5.30;;;20.70;99.20;;;;;;5066706;28;20133;-35
2022/09/04 07:37:26;;;;;;;6.07;5.40;;;20.70;99.10;;;;;;5063475;28;20016;-36
2022/09/04 07:39:54;;;;;;;6.57;5.07;;;20.80;99.10;;;;;;5065398;28;20032;-37
2022/09/04 07:42:33;;;;;;;6.20;5.63;;;20.70;99.10;;;;;;5065316;28;20132;-36
2022/09/04 07:45:06;;;;;;;5.57;5.07;;;20.70;99.10;;;;;;5064990;28;20032;-36
2022/09/04 07:47:35;;;;;;;5.28;4.78;;;20.70;99.20;;;;;;5065108;28;20456;-35
2022/09/04 07:50:21;;;;;;;5.38;4.88;;;20.70;99.20;;;;;;5065768;28;20024;-36
2022/09/04 07:53:05;;;;;;;6.20;5.60;;;20.70;99.60;;;;;;5064629;28;20016;-36
2022/09/04 07:55:42;;;;;;;5.88;5.28;;;20.70;99.30;;;;;;5065374;28;20551;-37
2022/09/04 07:58:21;;;;;;;6.05;5.15;;;20.70;99.30;;;;;;5063984;28;20028;-36
2022/09/04 08:01:09;;;;;;;6.32;5.72;;;20.70;99.30;;;;;;5064849;28;20476;-36
2022/09/04 08:03:54;;;;;;;5.15;4.70;;;20.70;99.40;;;;;;5065511;28;20068;-36
2022/09/04 08:06:37;;;;;;;7.93;6.57;;;20.70;99.30;;;;;;5065235;28;20496;-37
2022/09/04 08:09:37;;;;;;;6.68;5.40;;;20.70;99.30;;;;;;5065098;28;20123;-37
2022/09/04 08:12:27;;;;;;;9.13;5.45;;;20.70;99.40;;;;;;5045094;28;20029;-39
2022/09/04 08:15:02;;;;;;;5.38;4.80;;;20.80;99.40;;;;;;5064198;28;20135;-36
2022/09/04 08:17:49;;;;;;;7.10;5.03;;;20.80;99.30;;;;;;5065362;28;20491;-35
2022/09/04 08:20:21;;;;;;;5.57;5.07;;;20.90;99.30;;;;;;5064794;28;20028;-36
2022/09/04 08:23:04;;;;;;;6.97;5.55;;;20.90;99.30;;;;;;5064310;28;20037;-37
2022/09/04 08:25:51;;;;;;;7.45;5.30;;;21.00;99.30;;;;;;5063062;28;20131;-36
2022/09/04 08:28:32;;;;;;;6.57;4.82;;;21.10;99.20;;;;;;5064819;28;20016;-37
2022/09/04 08:31:16;;;;;;;4.90;4.50;;;21.10;99.10;;;;;;5064897;28;20102;-38
2022/09/04 08:34:38;;;;;;;5.30;4.80;;;21.20;99.10;;;;;;5063563;28;20093;-36
2022/09/04 08:37:20;;;;;;;4.68;4.28;;;21.30;99.00;;;;;;5061423;28;20067;-39
2022/09/04 08:40:00;;;;;;;4.43;4.03;;;21.40;98.90;;;;;;5064590;28;20029;-36
2022/09/04 08:42:35;;;;;;;4.13;3.72;;;21.40;98.80;;;;;;5064216;28;20043;-37
2022/09/04 08:45:38;;;;;;;5.65;3.83;;;21.50;98.70;;;;;;5064458;28;20016;-36
2022/09/04 08:48:25;;;;;;;;;;;21.60;98.70;;;;;;5043943;28;20520;-35
2022/09/04 08:50:54;;;;;;;4.68;3.65;;;21.70;98.60;;;;;;5062499;28;19909;-35
2022/09/04 08:53:34;;;;;;;3.92;3.22;;;21.80;98.40;;;;;;5064754;28;20043;-37
2022/09/04 08:56:25;;;;;;;4.88;3.40;;;21.80;98.40;;;;;;5064083;28;20119;-36
2022/09/04 08:59:18;;;;;;;5.55;3.75;;;21.90;98.20;;;;;;5063927;28;20495;-36
2022/09/04 09:02:02;;;;;;;6.05;3.55;;;22.00;98.10;;;;;;5060249;28;20628;-36
2022/09/04 09:05:02;;;;;;;7.72;3.30;;;22.10;98.00;;;;;;5063940;28;20030;-35
2022/09/04 09:07:57;;;;;;;4.53;3.30;;;22.20;97.90;;;;;;5054591;28;20135;-35
2022/09/04 09:10:34;;;;;;;4.50;3.00;;;22.30;97.80;;;;;;5064301;28;20024;-36
2022/09/04 09:13:12;;;;;;;3.45;3.10;;;22.40;97.70;;;;;;5064017;28;20066;-35
2022/09/04 09:16:18;;;;;;;3.20;2.90;;;22.40;97.60;;;;;;5063778;28;20024;-34
2022/09/04 09:19:17;;;;;;;3.33;3.03;;;22.50;97.50;;;;;;5064299;28;20443;-36
2022/09/04 09:21:57;;;;;;;2.95;2.70;;;22.50;97.40;;;;;;5064387;28;20036;-36
2022/09/04 09:25:00;;;;;;;3.30;2.90;;;22.60;97.50;;;;;;5063794;28;20016;-35
2022/09/04 09:27:26;;;;;;;2.70;2.35;;;22.60;97.10;;;;;;5063204;28;20032;-36
2022/09/04 09:30:19;;;;;;;3.30;2.67;;;22.70;97.00;;;;;;5063984;28;20319;-36
2022/09/04 09:33:24;;;;;;;4.43;3.30;;;22.80;96.90;;;;;;5058953;28;20438;-37
2022/09/04 09:36:25;;;;;;;4.18;3.20;;;22.90;96.80;;;;;;5063994;28;20590;-37
2022/09/04 09:39:14;;;;;;;2.97;2.70;;;23.00;96.70;;;;;;5021324;28;20026;-38
2022/09/04 09:41:58;;;;;;;3.30;3.00;;;23.00;96.60;;;;;;5061647;28;20055;-37
2022/09/04 09:44:54;;;;;;;3.17;2.60;;;23.10;96.50;;;;;;5063741;28;20020;-36
2022/09/04 09:47:20;;;;;;;3.20;2.53;;;23.20;96.40;;;;;;5064130;28;20029;-37
2022/09/04 09:50:26;;;;;;;2.67;2.47;;;23.20;96.20;;;;;;5063491;28;20078;-35
2022/09/04 09:53:36;;;;;;;2.63;2.25;;;23.20;96.00;;;;;;5063669;28;20033;-37
2022/09/04 09:56:29;;;;;;;3.80;3.08;;;23.40;95.80;;;;;;5063792;28;20029;-37
2022/09/04 09:59:25;;;;;;;2.83;2.55;;;23.50;95.60;;;;;;5051699;28;20361;-37
2022/09/04 10:02:06;;;;;;;2.83;2.63;;;23.60;95.50;;;;;;5063086;28;20086;-36
2022/09/04 10:04:54;;;;;;;3.03;2.73;;;23.70;95.50;;;;;;5062885;28;20020;-37
2022/09/04 10:07:38;;;;;;;2.92;2.45;;;23.70;95.40;;;;;;5063350;28;20132;-36
2022/09/04 10:10:23;;;;;;;3.40;2.97;;;23.70;95.20;;;;;;5063524;28;20029;-35
2022/09/04 10:13:07;;;;;;;4.65;3.10;;;23.80;95.10;;;;;;5063019;28;20031;-36
2022/09/04 10:15:45;;;;;;;3.05;2.85;;;23.90;94.90;;;;;;5064072;28;20399;-37
2022/09/04 10:18:55;;;;;;;2.50;2.30;;;23.90;94.70;;;;;;5064207;28;20029;-35
2022/09/04 10:21:49;;;;;;;2.60;2.13;;;24.10;94.60;;;;;;5043131;28;20045;-36
2022/09/04 10:24:48;;;;;;;2.78;2.58;;;24.10;94.40;;;;;;5064613;28;20021;-36
2022/09/04 10:27:46;;;;;;;2.75;2.20;;;24.20;94.20;;;;;;5064235;28;20021;-36
2022/09/04 10:30:22;;;;;;;3.40;2.28;;;24.30;94.00;;;;;;5055295;28;20056;-34
2022/09/04 10:33:04;;;;;;;2.63;1.98;;;24.30;93.90;;;;;;5063502;28;20050;-35
2022/09/04 10:35:35;;;;;;;;;;;24.40;93.80;;;;;;5064321;28;20048;-36
2022/09/04 10:38:24;;;;;;;3.17;2.88;;;24.50;93.70;;;;;;5065124;28;19931;-35
2022/09/04 10:41:13;;;;;;;2.80;2.60;;;24.60;93.50;;;;;;5066705;28;20040;-36
2022/09/04 10:44:14;;;;;;;3.75;2.65;;;24.60;93.40;;;;;;5066925;28;20058;-37
2022/09/04 10:46:51;;;;;;;2.97;2.28;;;24.70;93.40;;;;;;5066924;28;20027;-37
2022/09/04 10:49:20;;;;;;;3.60;3.13;;;24.70;93.30;;;;;;5067562;28;20060;-37
2022/09/04 10:51:51;;;;;;;4.03;2.42;;;24.70;92.90;;;;;;5066931;28;20025;-36
2022/09/04 10:54:44;;;;;;;2.47;2.17;;;24.70;93.00;;;;;;5066403;28;20094;-37
2022/09/04 10:57:21;;;;;;;2.13;1.90;;;24.80;93.20;;;;;;5047484;28;20055;-36
2022/09/04 10:59:52;;;;;;;2.95;2.20;;;24.90;92.70;;;;;;5062476;28;20175;-36
2022/09/04 11:02:36;;;;;;;2.33;2.00;;;25.00;92.50;;;;;;5066486;28;20033;-36
2022/09/04 11:05:26;;;;;;;2.10;1.90;;;25.10;92.40;;;;;;5066844;28;20071;-36
2022/09/04 11:08:12;;;;;;;2.05;1.75;;;25.20;92.20;;;;;;5046233;28;20082;-39
2022/09/04 11:11:01;;;;;;;2.53;1.88;;;25.30;92.00;;;;;;5066627;28;20476;-35
2022/09/04 11:13:55;;;;;;;2.38;1.75;;;25.50;91.70;;;;;;5067020;28;20082;-36
2022/09/04 11:16:26;;;;;;;2.20;1.60;;;25.70;91.30;;;;;;5066446;28;20017;-37
2022/09/04 11:19:19;;;;;;;2.90;1.45;;;25.80;91.10;;;;;;5066949;28;20107;-37
2022/09/04 11:22:13;;;;;;;1.40;1.30;;;25.90;90.80;;;;;;5055293;28;20028;-37
2022/09/04 11:25:00;;;;;;;2.63;1.30;;;26.00;90.60;;;;;;5066531;28;20032;-35
2022/09/04 11:27:50;;;;;;;3.50;1.50;;;26.10;90.40;;;;;;5066889;28;20040;-37
2022/09/04 11:30:54;;;;;;;1.88;1.55;;;26.20;90.10;;;;;;5066509;28;20024;-37
2022/09/04 11:34:12;;;;;;;1.40;1.30;;;26.30;89.50;;;;;;5066646;28;20043;-36
2022/09/04 11:36:58;;;;;;;1.58;1.40;;;26.40;89.20;;;;;;5064807;28;20035;-35
2022/09/04 11:39:46;;;;;;;1.58;1.10;;;26.40;88.40;;;;;;5067013;28;20378;-36
2022/09/04 11:42:26;;;;;;;1.70;1.30;;;26.40;87.90;;;;;;5065113;28;20036;-37
2022/09/04 11:45:16;;;;;;;1.30;1.20;;;26.50;87.40;;;;;;5065642;28;20375;-37
2022/09/04 11:47:41;;;;;;;1.25;1.15;;;26.50;87.10;;;;;;5056170;28;20338;-37
2022/09/04 11:50:56;;;;;;;1.92;1.10;;;26.60;87.00;;;;;;5064338;28;20025;-37
2022/09/04 11:53:31;;;;;;;2.05;1.40;;;26.60;86.80;;;;;;5058318;28;20028;-36
2022/09/04 11:56:00;;;;;;;1.55;1.45;;;26.60;86.50;;;;;;5066010;28;20032;-37
2022/09/04 11:58:26;;;;;;;1.73;1.55;;;26.70;86.70;;;;;;5065355;28;20032;-37
2022/09/04 12:01:13;;;;;;;1.38;1.15;;;26.70;86.70;;;;;;5065442;28;20036;-38
2022/09/04 12:04:21;;;;;;;1.17;1.08;;;26.70;86.60;;;;;;5066079;28;20095;-37
2022/09/04 12:07:12;;;;;;;1.55;1.45;;;26.70;86.30;;;;;;5066252;28;20135;-39
2022/09/04 12:10:05;;;;;;;1.57;1.43;;;26.70;86.10;;;;;;5045773;28;20060;-35
2022/09/04 12:12:51;;;;;;;1.30;1.20;;;26.80;85.90;;;;;;5060445;28;20270;-36
2022/09/04 12:15:54;;;;;;;1.83;1.48;;;26.80;85.70;;;;;;5045778;28;20029;-36
2022/09/04 12:18:35;;;;;;;1.40;1.30;;;26.90;84.90;;;;;;5063732;28;20479;-37
2022/09/04 12:21:19;;;;;;;2.30;1.60;;;26.90;84.90;;;;;;5065495;28;20484;-37
2022/09/04 12:24:02;;;;;;;1.33;1.23;;;26.90;84.70;;;;;;5053783;28;20131;-37
2022/09/04 12:27:04;;;;;;;1.42;1.33;;;26.90;84.70;;;;;;5064224;28;20027;-37
2022/09/04 12:29:56;;;;;;;1.70;1.50;;;26.90;84.80;;;;;;5058522;28;20107;-38
2022/09/04 12:32:37;;;;;;;;;;;26.90;84.70;;;;;;5065606;28;20013;-36
2022/09/04 12:35:28;;;;;;;1.30;1.20;;;27.00;84.90;;;;;;5065385;28;19922;-36
2022/09/04 12:38:24;;;;;;;1.85;1.60;;;26.90;84.70;;;;;;5045835;28;20408;-37
2022/09/04 12:41:04;;;;;;;3.80;1.48;;;26.90;84.70;;;;;;5045078;28;20444;-36
2022/09/04 12:44:05;;;;;;;1.85;1.45;;;26.90;84.60;;;;;;5062218;28;20135;-37
2022/09/04 12:46:36;;;;;;;2.17;1.20;;;26.90;84.50;;;;;;5064977;28;20032;-38
2022/09/04 12:49:33;;;;;;;2.40;1.50;;;26.90;84.40;;;;;;5064018;28;20376;-42
2022/09/04 12:52:37;;;;;;;1.73;1.30;;;26.90;84.30;;;;;;5064775;28;20039;-37
2022/09/04 12:55:09;;;;;;;1.30;1.20;;;26.90;84.30;;;;;;5055665;28;20797;-37
2022/09/04 12:57:35;;;;;;;2.17;1.40;;;26.90;84.30;;;;;;5064835;28;20047;-36
2022/09/04 13:00:14;;;;;;;1.58;1.40;;;27.00;84.30;;;;;;5064790;28;20498;-36
2022/09/04 13:03:01;;;;;;;4.63;1.35;;;27.00;84.20;;;;;;5049229;28;20852;-37
2022/09/04 13:06:08;;;;;;;1.50;1.30;;;27.10;83.60;;;;;;5056144;28;20020;-37
2022/09/04 13:09:08;;;;;;;1.55;1.20;;;27.10;83.30;;;;;;5063966;28;20032;-37
2022/09/04 13:12:07;;;;;;;1.35;1.25;;;27.20;83.10;;;;;;5064540;28;20078;-36
2022/09/04 13:15:11;;;;;;;1.45;1.20;;;27.30;82.40;;;;;;5063600;28;20443;-37
2022/09/04 13:17:53;;;;;;;1.65;1.23;;;27.40;82.00;;;;;;5064684;28;20032;-37
2022/09/04 13:20:41;;;;;;;2.20;1.30;;;27.50;81.60;;;;;;5065505;28;20036;-38
2022/09/04 13:23:34;;;;;;;1.25;1.13;;;27.60;81.20;;;;;;5063815;28;20173;-37
2022/09/04 13:26:23;;;;;;;;;;;27.80;81.10;;;;;;5055808;28;20028;-38
2022/09/04 13:29:14;;;;;;;2.13;1.38;;;27.80;80.40;;;;;;5063881;28;20006;-36
2022/09/04 13:32:05;;;;;;;2.60;1.60;;;28.00;79.70;;;;;;5064789;28;20432;-36
2022/09/04 13:35:10;;;;;;;1.75;1.30;;;28.00;79.30;;;;;;5064298;28;20476;-36
2022/09/04 13:38:07;;;;;;;2.00;1.30;;;28.10;79.00;;;;;;5044114;28;20025;-37
2022/09/04 13:41:05;;;;;;;1.40;1.20;;;28.20;79.00;;;;;;5063844;28;20388;-36
2022/09/04 13:43:58;;;;;;;1.38;1.27;;;28.20;78.60;;;;;;5063800;28;20067;-37
2022/09/04 13:46:29;;;;;;;1.90;1.20;;;28.30;78.40;;;;;;5063348;28;20455;-37
2022/09/04 13:49:03;;;;;;;1.50;1.40;;;28.40;78.10;;;;;;5064369;28;20024;-37
2022/09/04 13:51:36;;;;;;;1.55;1.45;;;28.40;77.90;;;;;;5063895;28;20074;-37
2022/09/04 13:54:17;;;;;;;1.50;1.40;;;28.50;77.80;;;;;;5062587;28;20196;-37
2022/09/04 13:56:50;;;;;;;1.05;1.05;;;28.50;77.40;;;;;;5063786;28;20583;-37
2022/09/04 13:59:19;;;;;;;1.60;1.00;;;28.60;76.70;;;;;;5064695;28;20059;-36
2022/09/04 14:01:49;;;;;;;1.23;0.80;;;28.60;76.30;;;;;;5064062;28;20067;-37
2022/09/04 14:04:38;;;;;;;0.60;0.60;;;28.60;76.20;;;;;;5064093;28;20096;-38
2022/09/04 14:07:10;;;;;;;0.80;0.80;;;28.70;76.20;;;;;;5063113;28;20020;-37
2022/09/04 14:09:42;;;;;;;2.67;0.90;;;28.70;76.00;;;;;;5064835;28;20029;-37
2022/09/04 14:12:29;;;;;;;0.68;0.68;;;28.80;75.80;;;;;;5063742;28;20217;-37
2022/09/04 14:15:19;;;;;;;0.85;0.80;;;28.80;75.30;;;;;;5068158;28;20463;-37
2022/09/04 14:18:00;;;;;;;0.82;0.73;;;28.80;75.20;;;;;;5058255;28;20840;-37
2022/09/04 14:20:33;;;;;;;0.75;0.70;;;28.80;75.10;;;;;;5067869;28;20483;-36
2022/09/04 14:23:27;;;;;;;0.70;0.70;;;28.90;75.10;;;;;;5068378;28;20071;-35
2022/09/04 14:26:03;;;;;;;0.65;0.65;;;28.80;74.60;;;;;;5067416;28;20479;-37
2022/09/04 14:28:41;;;;;;;2.22;0.82;;;28.90;74.70;;;;;;5067351;28;20049;-38